createdAt,value
2022-12-11T00:00:29.630Z,59.50
2022-12-11T00:02:57.302Z,64.63
2022-12-11T00:05:24.693Z,62.43
2022-12-11T00:07:52.111Z,63.72
2022-12-11T00:10:19.588Z,65.40
2022-12-11T00:12:46.981Z,67.45
2022-12-11T00:15:14.583Z,67.97
2022-12-11T00:17:41.895Z,66.65
2022-12-11T00:20:09.842Z,70.27
2022-12-11T00:22:37.287Z,66.63
2022-12-11T00:25:04.970Z,74.00
2022-12-11T00:27:32.301Z,75.72
2022-12-11T00:30:00.036Z,74.03
2022-12-11T00:32:28.506Z,68.10
2022-12-11T00:34:56.092Z,72.35
2022-12-11T00:37:23.679Z,64.78
2022-12-11T00:39:51.060Z,62.38
2022-12-11T00:42:18.377Z,64.88
2022-12-11T00:44:45.769Z,67.18
2022-12-11T00:47:13.043Z,65.65
2022-12-11T00:49:42.887Z,70.90
2022-12-11T00:52:13.881Z,62.35
2022-12-11T00:54:41.281Z,71.85
2022-12-11T00:57:08.629Z,65.25
2022-12-11T00:59:36.060Z,65.10
2022-12-11T01:02:03.563Z,63.47
2022-12-11T01:04:30.914Z,64.20
2022-12-11T01:06:58.275Z,67.22
2022-12-11T01:09:44.149Z,63.10
2022-12-11T01:12:11.602Z,61.45
2022-12-11T01:14:38.931Z,61.00
2022-12-11T01:17:06.506Z,61.60
2022-12-11T01:19:33.832Z,56.80
2022-12-11T01:22:01.150Z,56.58
2022-12-11T01:24:28.686Z,55.47
2022-12-11T01:26:56.099Z,54.22
2022-12-11T01:29:23.400Z,55.88
2022-12-11T01:31:50.812Z,54.88
2022-12-11T01:34:18.047Z,58.47
2022-12-11T01:36:45.372Z,56.85
2022-12-11T01:39:12.699Z,55.38
2022-12-11T01:41:40.187Z,56.45
2022-12-11T01:44:28.903Z,56.28
2022-12-11T01:46:56.336Z,57.03
2022-12-11T01:49:27.302Z,56.43
2022-12-11T01:52:03.303Z,57.42
2022-12-11T01:54:30.796Z,58.50
2022-12-11T01:57:03.312Z,56.92
2022-12-11T01:59:35.203Z,56.88
2022-12-11T02:02:17.858Z,56.80
2022-12-11T02:04:47.115Z,56.22
2022-12-11T02:07:14.959Z,58.38
2022-12-11T02:09:45.326Z,55.72
2022-12-11T02:12:31.718Z,55.85
2022-12-11T02:15:23.944Z,55.97
2022-12-11T02:17:58.857Z,52.17
2022-12-11T02:20:29.539Z,48.70
2022-12-11T02:23:14.983Z,50.47
2022-12-11T02:26:02.133Z,49.20
2022-12-11T02:28:43.501Z,46.25
2022-12-11T02:31:28.891Z,47.80
2022-12-11T02:33:56.289Z,47.90
2022-12-11T02:36:27.872Z,43.72
2022-12-11T02:38:58.943Z,43.83
2022-12-11T02:41:28.786Z,43.60
2022-12-11T02:43:57.783Z,43.80
2022-12-11T02:46:26.243Z,43.95
2022-12-11T02:48:55.859Z,40.05
2022-12-11T02:51:33.405Z,42.67
2022-12-11T02:54:02.320Z,37.83
2022-12-11T02:56:45.080Z,35.63
2022-12-11T02:59:26.950Z,37.20
2022-12-11T03:01:54.514Z,35.67
2022-12-11T03:04:24.988Z,34.35
2022-12-11T03:06:56.482Z,35.20
2022-12-11T03:09:23.831Z,36.05
2022-12-11T03:11:52.488Z,34.65
2022-12-11T03:14:20.174Z,35.35
2022-12-11T03:17:00.518Z,36.15
2022-12-11T03:19:36.723Z,30.50
2022-12-11T03:22:06.884Z,28.60
2022-12-11T03:24:46.258Z,28.80
2022-12-11T03:27:25.277Z,28.80
2022-12-11T03:30:15.256Z,26.73
2022-12-11T03:32:53.397Z,22.13
2022-12-11T03:35:32.956Z,21.58
2022-12-11T03:38:08.676Z,18.30
2022-12-11T03:40:38.750Z,16.95
2022-12-11T03:43:07.214Z,14.98
2022-12-11T03:45:35.610Z,15.23
2022-12-11T03:48:03.378Z,13.15
2022-12-11T03:50:34.055Z,10.80
2022-12-11T03:53:03.038Z,10.00
2022-12-11T03:55:32.741Z,8.63
2022-12-11T03:58:00.150Z,7.57
2022-12-11T04:00:27.951Z,7.63
2022-12-11T04:03:14.247Z,7.90
2022-12-11T04:05:51.297Z,7.25
2022-12-11T04:08:20.894Z,4.33
2022-12-11T04:11:09.279Z,3.08
2022-12-11T04:13:37.176Z,3.10
2022-12-11T04:16:04.644Z,3.05
2022-12-11T04:18:51.008Z,2.70
2022-12-11T04:21:39.692Z,2.60
2022-12-11T04:24:17.071Z,2.50
2022-12-11T04:26:46.458Z,2.53
2022-12-11T04:29:15.399Z,2.05
2022-12-11T04:31:42.845Z,2.22
2022-12-11T04:34:10.356Z,2.35
2022-12-11T04:36:37.822Z,2.30
2022-12-11T04:39:06.189Z,2.15
2022-12-11T04:41:33.848Z,2.20
2022-12-11T04:44:01.436Z,2.25
2022-12-11T04:46:28.874Z,1.95
2022-12-11T04:49:00.166Z,2.17
2022-12-11T04:51:28.528Z,2.13
2022-12-11T04:53:55.781Z,2.38
2022-12-11T04:56:23.168Z,2.00
2022-12-11T04:58:50.507Z,1.95
2022-12-11T05:01:20.445Z,1.40
2022-12-11T05:03:48.621Z,1.30
2022-12-11T05:06:16.108Z,1.37
2022-12-11T05:08:43.949Z,1.80
2022-12-11T05:11:14.042Z,2.17
2022-12-11T05:13:42.297Z,1.70
2022-12-11T05:16:11.974Z,2.03
2022-12-11T05:18:39.736Z,2.03
2022-12-11T05:21:09.395Z,2.00
2022-12-11T05:23:37.968Z,1.95
2022-12-11T05:26:08.335Z,2.20
2022-12-11T05:28:37.582Z,2.40
2022-12-11T05:31:14.538Z,2.23
2022-12-11T05:33:42.261Z,2.13
2022-12-11T05:36:13.699Z,2.08
2022-12-11T05:38:41.127Z,1.80
2022-12-11T05:41:09.043Z,2.20
2022-12-11T05:43:37.085Z,2.20
2022-12-11T05:46:13.092Z,2.30
2022-12-11T05:48:41.879Z,1.90
2022-12-11T05:51:10.405Z,1.80
2022-12-11T05:53:38.742Z,2.03
2022-12-11T05:56:12.120Z,1.95
2022-12-11T05:58:40.295Z,2.03
2022-12-11T06:01:16.403Z,1.83
2022-12-11T06:03:43.836Z,2.10
2022-12-11T06:06:11.511Z,1.95
2022-12-11T06:08:38.982Z,1.90
2022-12-11T06:11:07.023Z,1.88
2022-12-11T06:13:35.389Z,2.03
2022-12-11T06:16:05.428Z,2.00
2022-12-11T06:18:38.867Z,2.07
2022-12-11T06:21:27.226Z,2.03
2022-12-11T06:23:56.705Z,2.08
2022-12-11T06:26:24.357Z,1.77
2022-12-11T06:28:53.382Z,1.80
2022-12-11T06:31:21.330Z,1.40
2022-12-11T06:33:49.139Z,1.30
2022-12-11T06:36:19.027Z,1.35
2022-12-11T06:38:47.751Z,0.88
2022-12-11T06:41:15.479Z,1.20
2022-12-11T06:43:43.351Z,1.60
2022-12-11T06:46:16.180Z,1.00
2022-12-11T06:48:44.043Z,0.77
2022-12-11T06:53:40.700Z,0.60
2022-12-11T07:13:42.184Z,0.57
2022-12-11T07:16:11.391Z,0.90
2022-12-11T07:18:40.497Z,0.70
2022-12-11T07:21:09.743Z,0.65
2022-12-11T07:23:37.777Z,0.60
2022-12-11T07:26:07.595Z,0.80
2022-12-11T07:28:35.222Z,0.85
2022-12-11T07:31:11.021Z,1.10
2022-12-11T07:33:38.964Z,1.03
2022-12-11T07:36:09.481Z,0.88
2022-12-11T07:38:37.277Z,0.90
2022-12-11T07:41:06.433Z,1.20
2022-12-11T07:43:35.309Z,1.20
2022-12-11T07:46:08.996Z,1.05
2022-12-11T07:48:39.048Z,1.17
2022-12-11T07:51:11.518Z,1.35
2022-12-11T07:53:39.040Z,1.20
2022-12-11T07:56:06.941Z,1.27
2022-12-11T07:58:34.984Z,1.52
2022-12-11T08:01:02.460Z,1.42
2022-12-11T08:03:29.984Z,1.20
2022-12-11T08:05:57.253Z,1.30
2022-12-11T08:08:24.710Z,1.40
2022-12-11T12:55:18.232Z,3.55
2022-12-11T13:21:29.255Z,3.55
2022-12-11T13:24:37.008Z,3.80
2022-12-11T13:27:22.648Z,3.72
2022-12-11T13:29:50.260Z,3.75
2022-12-11T14:47:32.531Z,8.50
2022-12-11T14:50:26.793Z,7.57
2022-12-11T14:53:01.140Z,7.90
2022-12-11T14:55:35.094Z,7.82
2022-12-11T14:58:21.095Z,8.27
2022-12-11T15:01:24.855Z,8.23
2022-12-11T15:04:14.752Z,7.45
2022-12-11T15:06:48.040Z,6.67
2022-12-11T15:09:25.725Z,7.50
2022-12-11T15:11:55.227Z,7.60
2022-12-11T15:14:25.606Z,8.80
2022-12-11T15:16:57.210Z,9.00
2022-12-11T15:19:30.693Z,7.60
2022-12-11T15:22:06.625Z,7.65
2022-12-11T15:24:34.092Z,6.97
2022-12-11T15:27:01.695Z,8.03
2022-12-11T15:29:35.205Z,7.65
2022-12-11T15:32:04.280Z,7.85
2022-12-11T15:34:42.503Z,8.73
2022-12-11T15:37:24.094Z,8.30
2022-12-11T15:39:53.463Z,8.68
2022-12-11T15:42:27.183Z,7.70
2022-12-11T15:44:55.656Z,7.22
2022-12-11T15:47:32.675Z,7.85
2022-12-11T15:50:03.148Z,8.00
2022-12-11T15:52:31.037Z,8.20
2022-12-11T15:54:58.639Z,7.93
2022-12-11T15:57:26.430Z,9.10
2022-12-11T15:59:55.303Z,9.18
2022-12-11T16:02:24.509Z,9.50
2022-12-11T16:04:52.471Z,9.50
2022-12-11T16:07:23.216Z,9.53
2022-12-11T16:09:51.706Z,10.10
2022-12-11T16:12:20.441Z,10.40
2022-12-11T16:14:48.319Z,9.98
2022-12-11T16:17:16.835Z,10.88
2022-12-11T16:19:45.009Z,11.18
2022-12-11T16:22:14.411Z,10.55
2022-12-11T16:24:42.547Z,9.30
2022-12-11T16:27:10.190Z,9.70
2022-12-11T16:29:41.136Z,9.75
2022-12-11T16:32:09.115Z,10.45
2022-12-11T16:34:38.014Z,10.27
2022-12-11T16:37:07.636Z,10.00
2022-12-11T16:39:38.286Z,10.05
2022-12-11T16:42:07.572Z,9.93
2022-12-11T16:44:39.517Z,10.27
2022-12-11T16:47:10.401Z,11.82
2022-12-11T16:49:38.026Z,10.98
2022-12-11T16:52:05.634Z,10.63
2022-12-11T16:54:33.322Z,11.50
2022-12-11T16:57:02.956Z,11.55
2022-12-11T17:13:24.232Z,12.90
2022-12-11T17:15:51.925Z,13.30
2022-12-11T17:18:19.342Z,13.93
2022-12-11T17:20:47.377Z,14.50
2022-12-11T17:23:15.041Z,15.30
2022-12-11T17:25:44.332Z,15.25
2022-12-11T17:28:13.827Z,15.07
2022-12-11T17:30:45.047Z,15.18
2022-12-11T17:33:12.586Z,15.95
2022-12-11T17:35:40.004Z,14.90
2022-12-11T17:38:07.641Z,14.35
2022-12-11T17:40:35.320Z,14.85
2022-12-11T17:43:06.348Z,15.13
2022-12-11T17:45:33.786Z,13.93
2022-12-11T17:48:01.127Z,13.00
2022-12-11T17:50:28.880Z,15.23
2022-12-11T17:52:57.112Z,13.23
2022-12-11T17:55:24.811Z,12.75
2022-12-11T17:57:52.300Z,12.35
2022-12-11T18:00:19.908Z,12.38
2022-12-11T18:02:47.393Z,13.95
2022-12-11T18:05:14.865Z,12.85
2022-12-11T18:07:45.182Z,13.93
2022-12-11T18:10:16.366Z,14.10
2022-12-11T18:12:43.939Z,14.00
2022-12-11T18:15:11.816Z,13.50
2022-12-11T18:17:39.448Z,13.77
2022-12-11T18:20:08.643Z,13.00
2022-12-11T18:22:37.991Z,13.30
2022-12-11T18:25:09.772Z,12.90
2022-12-11T18:27:39.149Z,13.15
2022-12-11T18:30:07.830Z,13.50
2022-12-11T18:32:35.529Z,13.33
2022-12-11T18:35:04.633Z,13.20
2022-12-11T18:37:32.083Z,12.73
2022-12-11T18:40:03.072Z,14.05
2022-12-11T18:42:33.378Z,15.55
2022-12-11T18:45:01.800Z,15.75
2022-12-11T18:47:29.180Z,14.50
2022-12-11T18:49:57.441Z,14.88
2022-12-11T18:52:26.730Z,14.23
2022-12-11T18:54:54.316Z,14.68
2022-12-11T18:57:22.648Z,15.18
2022-12-11T18:59:54.165Z,15.60
2022-12-11T19:02:22.963Z,15.35
2022-12-11T19:04:50.465Z,14.75
2022-12-11T19:07:17.835Z,14.43
2022-12-11T19:09:48.271Z,14.70
2022-12-11T19:12:16.347Z,15.57
2022-12-11T19:14:46.026Z,16.08
2022-12-11T19:17:13.512Z,15.60
2022-12-11T19:19:43.314Z,15.73
2022-12-11T19:22:15.153Z,17.25
2022-12-11T19:24:53.504Z,12.38
2022-12-11T19:27:21.047Z,10.73
2022-12-11T19:34:43.166Z,11.02
2022-12-11T19:37:11.024Z,11.63
2022-12-11T20:06:49.941Z,14.07
2022-12-11T20:09:18.322Z,13.45
2022-12-11T20:11:47.641Z,14.80
2022-12-11T20:14:26.100Z,14.60
2022-12-11T20:17:13.802Z,12.38
2022-12-11T20:19:42.701Z,12.20
2022-12-11T20:22:11.010Z,13.40
2022-12-11T20:24:39.022Z,12.60
2022-12-11T20:27:07.070Z,12.80
2022-12-11T20:29:34.999Z,13.52
2022-12-11T20:32:03.108Z,11.38
2022-12-11T20:34:31.353Z,13.30
2022-12-11T20:37:00.549Z,12.98
2022-12-11T20:39:29.477Z,13.65
2022-12-11T20:41:57.272Z,13.68
2022-12-11T20:44:25.273Z,15.20
2022-12-11T20:46:53.054Z,15.65
2022-12-11T20:49:20.982Z,15.05
2022-12-11T20:51:48.664Z,14.75
2022-12-11T20:54:16.317Z,14.80
2022-12-11T20:56:44.091Z,13.55
2022-12-11T20:59:12.146Z,13.80
2022-12-11T21:01:40.540Z,14.75
2022-12-11T21:04:08.586Z,13.60
2022-12-11T21:06:38.966Z,14.38
2022-12-11T21:09:19.686Z,14.32
2022-12-11T21:11:47.440Z,15.23
